Detall de PIREP

Printer-friendly versionPDF version

[2011/06/29 08:55:00]
Flight IATA:CT3230
Pilot Number:011
Company ICAO:CAT
Aircraft Type:B738/F
PAX:160
Departing Airport: LEPA
Destination Airport: ELLX
Alternate Airport:EDDK
Online: VATSIM
Route:GALAT UN861 FISTO UY156 ADABI UN858 TSU UM163 MMD
Flight Level:F300
No Slew and time accel
No pause
Crash detect
Detect pilot in Cockpit between each 30 and 45 minutes
08:55 Zero fuel Weight: 136991 Lbs, Fuel Weight: 19964 Lbs
08:55 VATSIM:LEPA 290830Z 06010KT 030V100 9999 FEW025 28/20 Q1016 NOSIG
08:55 VATSIM:ELLX 290820Z 25010KT 4000 SHRA SCT004 SCT012CB BKN015 17/17 Q1018 NOSIG
08:57 Parking Brakes off
09:06 Take-off
09:06 Take off Weight: 156056 Lbs
09:06 Wind: 062º @ 010 Knots Heading: 239º
09:06 POS N39º 33´ 16´´ E002º 43´ 34´´
09:06 Gear Up: 178 Knots
09:06 Flaps:4 at 178 Knots
09:07 Flaps:3 at 238 Knots
09:07 Flaps:2 at 248 Knots
09:07 Flaps:1 at 255 Knots
09:07 Flaps:0 at 270 Knots
09:18 TOC
09:18 Fuel Weight: 16163 Lb
09:21 Wind:248º@019 Knots Heading: 348º Ground Speed: 478 Knots Altitude 30101 ft
09:36 Wind:293º@038 Knots Heading: 349º Ground Speed: 451 Knots Altitude 30213 ft
09:51 Wind:306º@032 Knots Heading: 352º Ground Speed: 444 Knots Altitude 30291 ft
10:06 Wind:337º@036 Knots Heading: 002º Ground Speed: 433 Knots Altitude 30321 ft
10:21 Wind:330º@027 Knots Heading: 016º Ground Speed: 449 Knots Altitude 30308 ft
10:36 Wind:313º@030 Knots Heading: 065º Ground Speed: 479 Knots Altitude 30255 ft
10:43 TOD
10:43 Fuel Weight: 7603 Lb
10:51 Wind:281º@020 Knots Heading: 050º Ground Speed: 394 Knots Altitude 15436 ft
10:57 Flaps:1 at 261 Knots
10:57 Flaps:2 at 259 Knots
10:57 Flaps:4 at 254 Knots
10:58 Flaps:5 at 208 Knots
10:59 Flaps:6 at 200 Knots
10:59 Gear Down: 199 Knots
11:00 Flaps:7 at 173 Knots
11:00 Flaps:8 at 170 Knots
11:03 TouchDown:Rate -99 ft/min Speed: 121 Knots
11:03 VATSIM:ELLX 291020Z 28006KT 9999 SCT004 BKN008 17/17 Q1019 NOSIG
11:03 Land
11:03 Wind:281º@006 Knots
11:03 Heading: 240º
11:03 Flight Duration: 01:57
11:03 Landing Weight: 143407 Lbs
11:03 POS N49º 37´ 24´´ E006º 12´ 11´´
11:05 Parking brakes on
11:05 Block to Block Duration: 02:09
11:05 Final Fuel: 6245 Lbls
11:05 Spent Fuel: 13719 Lbls
11:05 Flight Length: 717 NM
11:05 TOD Land Length: 110 NM

Exportar CSV

Powered by Drupal - Modified by Danger4k